createdAt,value
2023-06-09T00:02:25.661Z,86.40
2023-06-09T00:04:57.485Z,86.80
2023-06-09T00:07:28.569Z,87.10
2023-06-09T00:09:58.948Z,87.50
2023-06-09T00:12:29.645Z,87.20
2023-06-09T00:15:04.495Z,86.80
2023-06-09T00:17:39.790Z,86.90
2023-06-09T00:20:09.507Z,87.30
2023-06-09T00:22:43.627Z,87.20
2023-06-09T00:25:15.318Z,86.90
2023-06-09T00:27:46.153Z,86.40
2023-06-09T00:30:25.653Z,86.50
2023-06-09T00:33:06.368Z,86.70
2023-06-09T00:35:34.454Z,86.40
2023-06-09T00:38:02.578Z,86.80
2023-06-09T00:40:30.913Z,86.80
2023-06-09T00:43:00.982Z,87.20
2023-06-09T00:48:13.532Z,87.30
2023-06-09T00:50:42.423Z,87.50
2023-06-09T00:53:12.140Z,87.50
2023-06-09T00:55:42.339Z,88.10
2023-06-09T00:58:10.656Z,88.00
2023-06-09T01:00:41.687Z,87.80
2023-06-09T01:03:14.290Z,88.00
2023-06-09T01:05:45.287Z,88.10
2023-06-09T01:08:21.522Z,88.10
2023-06-09T01:10:59.116Z,88.10
2023-06-09T01:13:44.704Z,88.50
2023-06-09T01:16:21.735Z,87.80
2023-06-09T01:18:56.029Z,88.00
2023-06-09T01:21:38.485Z,88.10
2023-06-09T01:24:20.206Z,87.80
2023-06-09T01:26:52.066Z,88.10
2023-06-09T01:29:22.196Z,88.20
2023-06-09T01:32:04.608Z,88.80
2023-06-09T01:34:33.091Z,88.20
2023-06-09T01:37:01.290Z,88.90
2023-06-09T01:39:29.736Z,88.50
2023-06-09T01:42:01.938Z,88.20
2023-06-09T01:44:29.844Z,88.10
2023-06-09T01:47:00.586Z,88.50
2023-06-09T01:49:38.052Z,89.40
2023-06-09T01:52:17.829Z,88.70
2023-06-09T01:55:00.428Z,88.80
2023-06-09T01:57:42.605Z,88.90
2023-06-09T02:00:12.711Z,89.30
2023-06-09T02:02:42.838Z,89.50
2023-06-09T02:05:12.332Z,90.00
2023-06-09T02:07:47.393Z,90.00
2023-06-09T02:10:18.122Z,89.90
2023-06-09T02:12:49.800Z,89.90
2023-06-09T02:15:21.366Z,89.90
2023-06-09T02:17:56.179Z,90.10
2023-06-09T02:20:24.267Z,90.20
2023-06-09T02:22:54.277Z,90.30
2023-06-09T02:25:24.938Z,90.30
2023-06-09T02:27:57.304Z,90.10
2023-06-09T02:30:28.018Z,90.00
2023-06-09T02:32:56.428Z,90.30
2023-06-09T02:35:27.686Z,90.20
2023-06-09T02:37:55.612Z,90.20
2023-06-09T02:40:26.945Z,90.00
2023-06-09T02:42:59.380Z,90.00
2023-06-09T02:45:33.398Z,89.90
2023-06-09T02:48:14.831Z,90.10
2023-06-09T02:50:42.791Z,90.20
2023-06-09T02:53:16.448Z,90.00
2023-06-09T02:55:46.188Z,89.80
2023-06-09T02:58:16.608Z,90.20
2023-06-09T03:00:53.364Z,90.00
2023-06-09T03:03:24.281Z,90.20
2023-06-09T03:06:08.345Z,90.20
2023-06-09T03:08:42.199Z,90.20
2023-06-09T03:11:10.384Z,90.30
2023-06-09T03:13:39.684Z,90.70
2023-06-09T03:16:07.632Z,90.50
2023-06-09T03:18:35.958Z,90.20
2023-06-09T03:21:15.888Z,90.60
2023-06-09T03:23:43.853Z,90.40
2023-06-09T03:26:11.740Z,90.70
2023-06-09T03:28:41.006Z,90.70
2023-06-09T03:31:09.090Z,90.70
2023-06-09T03:33:37.055Z,90.50
2023-06-09T03:36:05.563Z,90.50
2023-06-09T03:38:38.878Z,90.60
2023-06-09T03:41:06.846Z,90.50
2023-06-09T03:43:37.816Z,90.40
2023-06-09T03:46:07.173Z,90.40
2023-06-09T03:48:38.000Z,90.60
2023-06-09T03:51:06.393Z,90.90
2023-06-09T03:53:34.315Z,90.90
2023-06-09T03:56:02.281Z,90.80
2023-06-09T03:58:30.270Z,90.90
2023-06-09T04:01:00.592Z,90.90
2023-06-09T04:03:29.870Z,91.00
2023-06-09T04:06:00.895Z,91.00
2023-06-09T04:08:30.287Z,91.20
2023-06-09T04:11:01.467Z,91.20
2023-06-09T04:13:29.384Z,91.20
2023-06-09T04:16:01.240Z,91.40
2023-06-09T04:18:33.403Z,91.70
2023-06-09T04:21:07.544Z,91.50
2023-06-09T04:23:39.772Z,91.60
2023-06-09T04:26:09.429Z,91.70
2023-06-09T04:28:37.421Z,91.90
2023-06-09T04:31:07.757Z,92.10
2023-06-09T04:33:38.099Z,92.20
2023-06-09T04:36:06.716Z,92.40
2023-06-09T04:38:35.382Z,92.00
2023-06-09T04:41:08.156Z,92.10
2023-06-09T04:43:43.535Z,92.00
2023-06-09T04:46:14.038Z,92.10
2023-06-09T04:48:45.876Z,92.20
2023-06-09T04:51:13.795Z,92.30
2023-06-09T04:53:41.820Z,92.40
2023-06-09T04:56:17.108Z,92.30
2023-06-09T04:58:48.052Z,92.30
2023-06-09T05:01:15.964Z,93.40
2023-06-09T05:03:51.163Z,93.10
2023-06-09T05:06:21.961Z,92.30
2023-06-09T05:08:56.480Z,93.00
2023-06-09T05:11:30.553Z,93.10
2023-06-09T05:13:58.477Z,93.40
2023-06-09T05:16:28.356Z,93.40
2023-06-09T05:18:58.050Z,93.20
2023-06-09T05:21:26.993Z,93.90
2023-06-09T05:23:55.408Z,93.60
2023-06-09T05:26:23.600Z,93.40
2023-06-09T05:28:51.911Z,93.80
2023-06-09T05:31:24.732Z,94.00
2023-06-09T05:33:57.205Z,94.30
2023-06-09T05:36:25.130Z,94.30
2023-06-09T05:38:55.942Z,94.60
2023-06-09T05:41:30.046Z,94.80
2023-06-09T05:43:58.946Z,94.70
2023-06-09T05:46:27.602Z,94.60
2023-06-09T05:49:02.440Z,94.30
2023-06-09T05:51:30.346Z,94.10
2023-06-09T05:53:58.975Z,94.00
2023-06-09T05:56:26.903Z,94.00
2023-06-09T05:59:02.922Z,93.20
2023-06-09T06:01:45.568Z,94.00
2023-06-09T06:04:17.965Z,93.50
2023-06-09T06:06:45.974Z,93.60
2023-06-09T06:09:14.242Z,93.70
2023-06-09T06:11:45.070Z,93.20
2023-06-09T06:14:12.958Z,92.50
2023-06-09T06:16:41.012Z,93.10
2023-06-09T06:19:10.073Z,93.00
2023-06-09T06:21:48.355Z,93.10
2023-06-09T06:24:16.478Z,93.10
2023-06-09T06:26:44.365Z,93.10
2023-06-09T06:29:15.407Z,93.20
2023-06-09T06:31:43.363Z,93.80
2023-06-09T06:34:14.417Z,93.40
2023-06-09T06:36:42.336Z,93.90
2023-06-09T06:39:13.289Z,93.70
2023-06-09T06:41:43.705Z,93.90
2023-06-09T06:44:11.614Z,94.00
2023-06-09T06:46:39.547Z,94.20
2023-06-09T06:49:07.500Z,94.10
2023-06-09T06:51:35.386Z,93.90
2023-06-09T06:54:04.754Z,93.80
2023-06-09T06:56:34.049Z,93.80
2023-06-09T06:59:01.951Z,94.00
2023-06-09T07:01:30.740Z,93.70
2023-06-09T07:03:58.755Z,94.20
2023-06-09T07:06:28.805Z,93.20
2023-06-09T07:09:00.775Z,93.70
2023-06-09T07:11:30.316Z,93.40
2023-06-09T07:13:59.895Z,93.80
2023-06-09T07:16:27.848Z,93.50
2023-06-09T07:18:55.791Z,93.60
2023-06-09T07:21:23.749Z,93.20
2023-06-09T07:23:51.740Z,93.60
2023-06-09T07:26:20.317Z,93.00
2023-06-09T07:28:48.256Z,92.20
2023-06-09T07:31:22.683Z,92.20
2023-06-09T07:33:53.427Z,93.20
2023-06-09T07:36:21.365Z,93.20
2023-06-09T07:38:52.369Z,92.60
2023-06-09T07:41:23.276Z,92.30
2023-06-09T07:43:51.177Z,92.60
2023-06-09T07:46:20.461Z,92.60
2023-06-09T07:48:48.425Z,92.00
2023-06-09T07:51:17.721Z,92.10
2023-06-09T07:53:46.487Z,92.40
2023-06-09T07:56:16.719Z,92.30
2023-06-09T07:58:50.868Z,92.00
2023-06-09T08:01:20.199Z,93.00
2023-06-09T08:03:48.238Z,92.60
2023-06-09T08:06:22.253Z,91.90
2023-06-09T08:08:50.617Z,92.30
2023-06-09T08:11:25.230Z,93.10
2023-06-09T08:13:53.181Z,92.70
2023-06-09T08:16:22.538Z,92.50
2023-06-09T08:18:53.602Z,92.00
2023-06-09T08:21:21.520Z,91.60
2023-06-09T08:23:49.554Z,91.60
2023-06-09T08:26:19.674Z,92.40
2023-06-09T08:28:47.625Z,90.10
2023-06-09T08:31:15.629Z,91.30
2023-06-09T08:33:53.120Z,91.80
2023-06-09T08:36:21.039Z,91.60
2023-06-09T08:38:49.032Z,90.40
2023-06-09T08:41:18.123Z,90.30
2023-06-09T08:43:55.686Z,90.30
2023-06-09T08:46:27.312Z,90.20
2023-06-09T08:49:01.438Z,90.80
2023-06-09T08:51:29.816Z,91.00
2023-06-09T08:53:58.104Z,90.00
2023-06-09T08:56:26.079Z,90.70
2023-06-09T08:58:57.462Z,89.70
2023-06-09T09:01:25.907Z,91.10
2023-06-09T09:04:02.464Z,90.20
2023-06-09T09:06:32.735Z,90.80
2023-06-09T09:09:01.059Z,91.40
2023-06-09T09:11:29.368Z,90.50
2023-06-09T09:13:57.864Z,90.10
2023-06-09T09:16:34.477Z,89.60
2023-06-09T09:19:05.145Z,90.70
2023-06-09T09:21:35.250Z,90.20
2023-06-09T09:24:05.354Z,90.70
2023-06-09T09:26:43.043Z,90.10
2023-06-09T09:29:11.562Z,89.70
2023-06-09T09:31:42.860Z,90.10
2023-06-09T09:34:16.736Z,90.00
2023-06-09T09:36:44.853Z,89.10
2023-06-09T09:39:16.400Z,87.40
2023-06-09T09:42:02.890Z,88.10
2023-06-09T09:44:38.425Z,90.10
2023-06-09T09:47:09.541Z,90.20
2023-06-09T09:49:52.780Z,88.80
2023-06-09T09:52:27.998Z,89.70
2023-06-09T09:55:05.839Z,88.80
2023-06-09T09:57:35.168Z,88.00
2023-06-09T10:00:09.251Z,88.20
2023-06-09T10:02:43.439Z,87.20
2023-06-09T10:05:16.060Z,87.10
2023-06-09T10:07:47.108Z,86.60
2023-06-09T10:10:18.628Z,88.60
2023-06-09T10:12:47.883Z,86.50
2023-06-09T10:15:16.564Z,86.00
2023-06-09T10:17:46.394Z,85.00
2023-06-09T10:20:16.795Z,84.00
2023-06-09T10:22:45.796Z,86.10
2023-06-09T10:25:19.985Z,82.80
2023-06-09T10:27:52.119Z,82.20
2023-06-09T10:30:23.482Z,83.00
2023-06-09T10:33:01.058Z,83.40
2023-06-09T10:35:32.310Z,80.10
2023-06-09T10:38:01.274Z,80.50
2023-06-09T10:40:36.699Z,81.40
2023-06-09T10:43:23.814Z,82.90
2023-06-09T10:45:56.358Z,82.30
2023-06-09T10:48:50.770Z,83.20
2023-06-09T10:51:42.518Z,82.10
2023-06-09T10:54:22.046Z,82.70
2023-06-09T10:56:54.345Z,83.10
2023-06-09T11:00:18.335Z,82.30
2023-06-09T11:02:51.057Z,83.00
2023-06-09T11:05:21.027Z,83.70
2023-06-09T11:07:52.475Z,86.60
2023-06-09T11:10:29.400Z,81.20
2023-06-09T11:12:58.346Z,78.40
2023-06-09T11:16:02.565Z,78.90
2023-06-09T11:18:34.416Z,79.90
2023-06-09T11:21:17.573Z,80.20
2023-06-09T11:23:56.420Z,80.10
2023-06-09T11:26:25.536Z,79.70
2023-06-09T11:28:53.600Z,80.40
2023-06-09T11:31:27.864Z,79.60
2023-06-09T11:33:56.898Z,80.60
2023-06-09T11:36:31.107Z,79.20
2023-06-09T11:39:07.333Z,78.50
2023-06-09T11:41:38.260Z,79.90
2023-06-09T11:44:09.372Z,79.60
2023-06-09T11:46:38.698Z,78.20
2023-06-09T11:49:08.496Z,76.70
2023-06-09T11:51:56.167Z,78.20
2023-06-09T11:54:27.885Z,77.60
2023-06-09T11:56:57.712Z,78.30
2023-06-09T11:59:41.404Z,76.80
2023-06-09T12:02:19.884Z,77.00
2023-06-09T12:04:51.165Z,79.00
2023-06-09T12:07:20.321Z,77.20
2023-06-09T12:09:56.864Z,76.40
2023-06-09T12:12:27.317Z,77.80
2023-06-09T12:14:55.450Z,76.40
2023-06-09T12:17:27.661Z,78.70
2023-06-09T12:19:57.374Z,77.10
2023-06-09T12:22:25.500Z,74.20
2023-06-09T12:24:59.616Z,74.50
2023-06-09T12:27:29.221Z,73.40
2023-06-09T12:30:04.091Z,73.50
2023-06-09T12:32:36.565Z,72.80
2023-06-09T12:35:05.207Z,74.10
2023-06-09T12:37:39.115Z,75.30
2023-06-09T12:40:12.262Z,74.00
2023-06-09T12:42:47.805Z,73.00
2023-06-09T12:45:16.132Z,72.90
2023-06-09T12:47:50.435Z,73.20
2023-06-09T12:50:18.472Z,72.30
2023-06-09T12:52:46.406Z,71.20
2023-06-09T12:55:18.052Z,71.80
2023-06-09T12:57:46.086Z,72.20
2023-06-09T13:00:21.960Z,72.20
2023-06-09T13:02:54.986Z,71.30
2023-06-09T13:05:24.579Z,69.50
2023-06-09T13:07:55.648Z,70.90
2023-06-09T13:10:30.825Z,71.20
2023-06-09T13:12:59.417Z,71.90
2023-06-09T13:15:30.554Z,71.90
2023-06-09T13:17:59.983Z,69.80
2023-06-09T13:20:27.973Z,70.00
2023-06-09T13:22:55.887Z,70.60
2023-06-09T13:25:26.621Z,71.00
2023-06-09T13:28:03.751Z,71.60
2023-06-09T13:30:35.945Z,69.60
2023-06-09T13:33:07.196Z,69.00
2023-06-09T13:35:35.791Z,69.70
2023-06-09T13:38:07.099Z,69.90
2023-06-09T13:40:35.366Z,69.20
2023-06-09T13:43:03.309Z,70.10
2023-06-09T13:45:31.345Z,69.00
2023-06-09T13:48:01.580Z,68.90
2023-06-09T13:50:31.565Z,70.10
2023-06-09T13:52:59.496Z,70.10
2023-06-09T13:55:27.492Z,70.30
2023-06-09T13:57:58.613Z,68.60
2023-06-09T14:00:29.665Z,70.00
2023-06-09T14:03:02.018Z,69.70
2023-06-09T14:05:34.478Z,70.00
2023-06-09T14:08:02.429Z,71.50
2023-06-09T14:10:33.139Z,69.60
2023-06-09T14:13:01.037Z,71.20
2023-06-09T14:15:34.804Z,71.40
2023-06-09T14:18:03.211Z,70.40
2023-06-09T14:20:35.230Z,69.20
2023-06-09T14:23:09.811Z,69.00
2023-06-09T14:25:37.982Z,69.90
2023-06-09T14:28:06.027Z,70.20
2023-06-09T14:30:42.820Z,70.50
2023-06-09T14:33:10.900Z,68.80
2023-06-09T14:35:40.180Z,69.40
2023-06-09T14:38:08.281Z,68.80
2023-06-09T14:40:37.384Z,67.40
2023-06-09T14:43:10.419Z,69.30
2023-06-09T14:45:38.617Z,69.50
2023-06-09T14:48:11.528Z,68.80
2023-06-09T14:50:47.084Z,69.60
2023-06-09T14:53:15.809Z,68.50
2023-06-09T14:55:47.018Z,67.70
2023-06-09T14:58:16.360Z,66.80
2023-06-09T15:00:48.171Z,66.60
2023-06-09T15:03:17.942Z,65.70
2023-06-09T15:05:47.622Z,66.30
2023-06-09T15:08:15.629Z,66.00
2023-06-09T15:10:45.439Z,65.00
2023-06-09T15:13:17.513Z,65.10
2023-06-09T15:15:47.157Z,64.20
2023-06-09T15:18:17.816Z,64.00
2023-06-09T15:20:47.265Z,65.40
2023-06-09T15:23:15.402Z,63.80
2023-06-09T15:25:45.573Z,64.70
2023-06-09T15:28:15.499Z,64.70
2023-06-09T15:30:45.198Z,64.40
2023-06-09T15:33:14.763Z,65.80
2023-06-09T15:35:44.814Z,65.10
2023-06-09T15:38:16.340Z,63.90
2023-06-09T15:40:51.387Z,65.70
2023-06-09T15:43:27.790Z,65.10
2023-06-09T15:45:57.063Z,65.50
2023-06-09T15:48:25.540Z,65.30
2023-06-09T15:50:53.834Z,65.10
2023-06-09T15:53:23.261Z,65.70
2023-06-09T15:55:52.806Z,66.90
2023-06-09T15:58:21.572Z,65.50
2023-06-09T16:00:50.544Z,65.60
2023-06-09T16:03:24.952Z,63.70
2023-06-09T16:05:55.961Z,64.60
2023-06-09T16:08:30.781Z,65.50
2023-06-09T16:11:01.496Z,63.70
2023-06-09T16:13:29.437Z,63.50
2023-06-09T16:16:00.426Z,65.60
2023-06-09T16:18:28.401Z,65.20
2023-06-09T16:20:56.353Z,63.00
2023-06-09T16:23:28.668Z,64.20
2023-06-09T16:25:59.356Z,63.80
2023-06-09T16:28:27.338Z,63.00
2023-06-09T16:30:55.265Z,63.50
2023-06-09T16:33:23.190Z,64.30
2023-06-09T16:35:51.102Z,64.70
2023-06-09T16:38:19.057Z,64.10
2023-06-09T16:40:57.446Z,65.30
2023-06-09T16:43:26.478Z,65.30
2023-06-09T16:45:54.378Z,66.40
2023-06-09T16:48:28.275Z,65.20
2023-06-09T16:51:00.378Z,66.00
2023-06-09T16:53:33.028Z,64.60
2023-06-09T16:56:02.307Z,64.60
2023-06-09T16:58:33.355Z,66.10
2023-06-09T17:01:04.079Z,67.20
2023-06-09T17:03:32.107Z,67.50
2023-06-09T17:06:00.112Z,69.00
2023-06-09T17:08:30.969Z,68.50
2023-06-09T17:10:58.925Z,68.20
2023-06-09T17:13:32.584Z,68.80
2023-06-09T17:16:00.522Z,68.00
2023-06-09T17:18:31.702Z,68.30
2023-06-09T17:21:04.400Z,67.60
2023-06-09T17:23:32.644Z,67.10
2023-06-09T17:26:00.573Z,67.80
2023-06-09T17:28:36.065Z,69.20
2023-06-09T17:31:03.998Z,69.40
2023-06-09T17:33:31.918Z,69.50
2023-06-09T17:35:59.859Z,69.40
2023-06-09T17:38:42.526Z,69.00
2023-06-09T17:41:10.406Z,69.80
2023-06-09T17:43:42.080Z,70.00
2023-06-09T17:46:17.757Z,70.60
2023-06-09T17:48:48.480Z,70.30
2023-06-09T17:51:21.086Z,70.50
2023-06-09T17:53:53.958Z,70.80
2023-06-09T17:56:25.223Z,71.00
2023-06-09T17:58:57.032Z,71.20
2023-06-09T18:01:25.023Z,70.80
2023-06-09T18:03:53.064Z,70.00
2023-06-09T18:06:24.017Z,70.90
2023-06-09T18:08:55.025Z,70.50
2023-06-09T18:11:22.975Z,70.50
2023-06-09T18:13:50.861Z,70.80
2023-06-09T18:16:37.744Z,70.80
2023-06-09T18:19:06.571Z,71.10
2023-06-09T18:21:34.521Z,70.90
2023-06-09T18:24:06.035Z,71.60
2023-06-09T18:26:33.955Z,70.70
2023-06-09T18:29:04.925Z,70.90
2023-06-09T18:31:33.050Z,72.00
2023-06-09T18:34:04.906Z,70.40
2023-06-09T18:36:41.778Z,70.50
2023-06-09T18:39:09.932Z,70.40
2023-06-09T18:41:40.907Z,70.70
2023-06-09T18:44:13.515Z,70.90
2023-06-09T18:46:41.515Z,71.80
2023-06-09T18:49:11.229Z,71.90
2023-06-09T18:51:42.292Z,71.50
2023-06-09T18:54:13.205Z,72.10
2023-06-09T18:56:45.893Z,72.60
2023-06-09T18:59:13.831Z,72.80
2023-06-09T19:01:44.909Z,73.40
2023-06-09T19:04:14.283Z,73.60
2023-06-09T19:06:42.288Z,74.30
2023-06-09T19:09:10.415Z,74.90
2023-06-09T19:11:41.248Z,75.30
2023-06-09T19:14:09.195Z,75.40
2023-06-09T19:16:51.214Z,75.10
2023-06-09T19:19:20.491Z,75.60
2023-06-09T19:21:49.652Z,75.30
2023-06-09T19:24:17.657Z,75.60
2023-06-09T19:26:45.785Z,76.00
2023-06-09T19:29:16.538Z,76.90
2023-06-09T19:31:49.998Z,76.80
2023-06-09T19:34:18.103Z,76.80
2023-06-09T19:37:01.041Z,76.80
2023-06-09T19:39:30.156Z,76.60
2023-06-09T19:42:00.877Z,76.90
2023-06-09T19:44:28.818Z,76.60
2023-06-09T19:46:59.507Z,76.20
2023-06-09T19:49:29.643Z,76.20
2023-06-09T19:51:58.887Z,76.40
2023-06-09T19:54:26.795Z,76.10
2023-06-09T19:56:57.801Z,75.60
2023-06-09T19:59:26.484Z,74.90
2023-06-09T20:01:59.878Z,75.10
2023-06-09T20:04:27.918Z,74.60
2023-06-09T20:06:55.938Z,75.20
2023-06-09T20:09:27.293Z,74.40
2023-06-09T20:11:55.306Z,74.90
2023-06-09T20:14:23.233Z,74.40
2023-06-09T20:16:51.258Z,74.70
2023-06-09T20:19:19.606Z,75.60
2023-06-09T20:21:49.464Z,75.50
2023-06-09T20:24:21.632Z,75.20
2023-06-09T20:26:51.464Z,74.80
2023-06-09T20:29:25.605Z,74.40
2023-06-09T20:31:55.256Z,75.50
2023-06-09T20:34:23.174Z,74.20
2023-06-09T20:36:51.196Z,75.90
2023-06-09T20:39:22.078Z,74.30
2023-06-09T20:41:51.764Z,75.70
2023-06-09T20:44:22.378Z,75.30
2023-06-09T20:46:50.877Z,75.80
2023-06-09T20:49:19.089Z,73.80
2023-06-09T20:51:47.006Z,73.70
2023-06-09T20:54:18.710Z,74.40
2023-06-09T20:56:47.169Z,73.60
2023-06-09T20:59:18.985Z,73.60
2023-06-09T21:01:51.001Z,75.40
2023-06-09T21:04:21.727Z,74.60
2023-06-09T21:06:50.781Z,73.40
2023-06-09T21:09:20.793Z,74.80
2023-06-09T21:11:48.734Z,73.30
2023-06-09T21:14:20.894Z,75.50
2023-06-09T21:16:48.841Z,74.40
2023-06-09T21:19:19.863Z,73.60
2023-06-09T21:21:47.768Z,74.70
2023-06-09T21:24:15.829Z,74.20
2023-06-09T21:26:43.845Z,72.10
2023-06-09T21:29:14.623Z,72.40
2023-06-09T21:31:50.168Z,72.90
2023-06-09T21:34:18.190Z,74.40
2023-06-09T21:36:48.909Z,74.40
2023-06-09T21:39:17.209Z,74.90
2023-06-09T21:41:54.735Z,75.60
2023-06-09T21:44:25.742Z,73.80
2023-06-09T21:46:55.511Z,74.30
2023-06-09T21:49:26.332Z,74.30
2023-06-09T21:51:56.594Z,75.00
2023-06-09T21:54:27.453Z,75.20
2023-06-09T21:56:58.116Z,75.20
2023-06-09T21:59:28.794Z,74.90
2023-06-09T22:02:00.758Z,75.00
2023-06-09T22:04:34.040Z,74.90
2023-06-09T22:07:02.029Z,74.90
2023-06-09T22:09:31.412Z,75.00
2023-06-09T22:12:06.942Z,74.90
2023-06-09T22:14:34.873Z,74.90
2023-06-09T22:17:07.185Z,75.00
2023-06-09T22:19:36.561Z,75.10
2023-06-09T22:22:08.075Z,75.20
2023-06-09T22:24:38.909Z,75.30
2023-06-09T22:27:08.290Z,75.30
2023-06-09T22:29:36.462Z,75.30
2023-06-09T22:32:06.543Z,75.50
2023-06-09T22:34:34.429Z,75.40
2023-06-09T22:37:02.358Z,75.60
2023-06-09T22:39:30.363Z,75.50
2023-06-09T22:41:58.242Z,75.60
2023-06-09T22:44:26.222Z,75.70
2023-06-09T22:46:54.622Z,75.80
2023-06-09T22:49:23.978Z,75.60
2023-06-09T22:51:53.259Z,75.60
2023-06-09T22:54:21.159Z,76.10
2023-06-09T22:56:49.053Z,76.00
2023-06-09T22:59:20.040Z,76.00
2023-06-09T23:01:50.232Z,75.90
2023-06-09T23:04:21.168Z,76.10
2023-06-09T23:06:50.745Z,75.90
2023-06-09T23:09:24.752Z,75.60
2023-06-09T23:11:55.455Z,75.70
2023-06-09T23:14:30.525Z,75.80
2023-06-09T23:16:58.429Z,75.60
2023-06-09T23:19:26.412Z,76.00
2023-06-09T23:21:59.938Z,76.10
2023-06-09T23:24:30.092Z,76.20
2023-06-09T23:26:59.643Z,76.20
2023-06-09T23:29:27.535Z,76.20
2023-06-09T23:31:56.210Z,76.20
2023-06-09T23:34:33.200Z,76.30
2023-06-09T23:37:05.421Z,76.30
2023-06-09T23:39:40.604Z,76.20
2023-06-09T23:42:09.196Z,76.20
2023-06-09T23:44:40.895Z,76.40
2023-06-09T23:47:12.031Z,76.40
2023-06-09T23:49:39.940Z,76.60
2023-06-09T23:52:18.357Z,76.50
2023-06-09T23:54:55.187Z,76.70
2023-06-09T23:57:23.663Z,76.80
2023-06-09T23:59:51.550Z,76.70
